Time;durP1;ratioP1;P1;durP2;ratioP2;P2;SDS_P1;SDS_P2;PMS_P1;PMS_P2;Temp;Humidity;BMP_temperature;BMP_pressure;BME280_temperature;BME280_humidity;BME280_pressure;Samples;Min_cycle;Max_cycle;Signal;HPM_P1;HPM_P2
2022/07/15 00:01:28;;;;;;;8.73;3.15;;;;;;;17.40;59.47;102153.59;5035091;28;20018;-69
2022/07/15 00:03:54;;;;;;;8.60;3.00;;;;;;;17.38;59.19;102165.16;5036264;28;20383;-69
2022/07/15 00:06:19;;;;;;;10.82;3.30;;;;;;;17.42;59.19;102162.50;5036449;28;20108;-69
2022/07/15 00:08:44;;;;;;;7.30;3.28;;;;;;;17.48;59.04;102157.19;5036646;28;20033;-69
2022/07/15 00:11:10;;;;;;;10.27;3.10;;;;;;;17.40;58.80;102150.94;5036284;28;20438;-69
2022/07/15 00:13:35;;;;;;;9.50;3.50;;;;;;;17.38;59.47;102155.38;5034745;28;20021;-69
2022/07/15 00:16:01;;;;;;;10.52;3.20;;;;;;;17.32;59.82;102154.47;5036126;28;20076;-69
2022/07/15 00:18:26;;;;;;;6.55;2.90;;;;;;;17.28;59.86;102162.47;5035800;28;20132;-69
2022/07/15 00:20:51;;;;;;;11.30;3.10;;;;;;;17.22;60.14;102159.78;5035842;28;20030;-69
2022/07/15 00:23:17;;;;;;;6.82;2.85;;;;;;;17.32;59.76;102159.81;5035902;28;20104;-69
2022/07/15 00:25:43;;;;;;;11.02;3.13;;;;;;;17.36;59.38;102153.59;5035777;28;20036;-69
2022/07/15 00:28:09;;;;;;;8.50;3.20;;;;;;;17.16;60.41;102158.84;5035681;28;20025;-69
2022/07/15 00:30:37;;;;;;;5.90;2.95;;;;;;;17.23;59.94;102158.00;5035858;28;20036;-69
2022/07/15 00:33:03;;;;;;;6.72;2.92;;;;;;;17.20;60.08;102156.19;5035748;28;20021;-69
2022/07/15 00:35:29;;;;;;;11.35;3.10;;;;;;;17.34;59.64;102150.00;5035851;28;20026;-69
2022/07/15 00:37:55;;;;;;;11.23;3.30;;;;;;;17.30;59.50;102149.13;5036063;28;20057;-69
2022/07/15 00:40:21;;;;;;;10.75;3.00;;;;;;;17.25;59.92;102148.19;5035472;28;20037;-69
2022/07/15 00:42:46;;;;;;;10.90;3.00;;;;;;;17.26;59.92;102152.66;5035562;28;20034;-69
2022/07/15 00:45:17;;;;;;;7.00;3.08;;;;;;;17.23;59.71;102148.19;5035592;28;20029;-69
2022/07/15 00:47:45;;;;;;;10.27;2.90;;;;;;;17.18;60.02;102147.28;5035522;28;20067;-69
2022/07/15 00:50:12;;;;;;;10.90;3.33;;;;;;;17.20;59.99;102147.28;5035472;28;20026;-69
2022/07/15 00:52:41;;;;;;;7.95;2.90;;;;;;;17.16;60.09;102150.81;5035378;28;20526;-69
2022/07/15 00:55:10;;;;;;;7.47;2.90;;;;;;;17.19;60.02;102153.53;5035127;28;20057;-69
2022/07/15 00:57:40;;;;;;;9.43;3.28;;;;;;;17.11;60.09;102157.94;5035595;28;20080;-69
2022/07/15 01:00:08;;;;;;;13.23;3.17;;;;;;;17.04;60.32;102148.97;5035294;28;20021;-68
2022/07/15 01:02:34;;;;;;;9.55;3.00;;;;;;;17.01;60.19;102141.88;5035134;28;20411;-69
2022/07/15 01:05:03;;;;;;;9.77;3.40;;;;;;;16.96;60.34;102153.41;5035143;28;20036;-69
2022/07/15 01:07:29;;;;;;;8.82;3.22;;;;;;;16.92;60.56;102152.50;5034305;28;20060;-68
2022/07/15 01:09:55;;;;;;;11.60;3.30;;;;;;;16.93;60.44;102153.41;5049737;28;20045;-69
2022/07/15 01:12:20;;;;;;;6.80;2.75;;;;;;;16.87;60.40;102150.66;5035244;28;20037;-69
2022/07/15 01:14:45;;;;;;;14.43;3.03;;;;;;;16.91;60.37;102148.03;5034928;28;20030;-69
2022/07/15 01:17:11;;;;;;;9.38;3.00;;;;;;;16.90;60.31;102151.59;5034947;28;20044;-68
2022/07/15 01:19:38;;;;;;;7.43;2.90;;;;;;;16.85;60.62;102144.44;5034741;28;20048;-68
2022/07/15 01:22:05;;;;;;;7.60;3.10;;;;;;;16.78;60.53;102141.72;5033954;28;20025;-69
2022/07/15 01:24:30;;;;;;;8.10;3.03;;;;;;;16.83;60.06;102146.19;5034830;28;20022;-68
2022/07/15 01:26:56;;;;;;;9.27;3.33;;;;;;;16.63;61.06;102138.94;5034780;28;20390;-68
2022/07/15 01:29:21;;;;;;;9.93;3.22;;;;;;;16.61;60.49;102151.38;5033415;28;20040;-68
2022/07/15 01:31:47;;;;;;;7.45;2.55;;;;;;;16.48;61.46;102152.16;5033445;28;20028;-68
2022/07/15 01:34:12;;;;;;;11.10;2.92;;;;;;;16.29;61.57;102161.81;5034863;28;20483;-68
2022/07/15 01:36:38;;;;;;;7.43;3.10;;;;;;;16.26;61.50;102168.00;5034756;28;20387;-69
2022/07/15 01:39:03;;;;;;;9.70;3.20;;;;;;;16.25;61.71;102162.66;5034415;28;20022;-69
2022/07/15 01:41:29;;;;;;;9.98;3.25;;;;;;;16.18;61.97;102164.38;5049949;28;20491;-68
2022/07/15 01:43:54;;;;;;;6.85;3.00;;;;;;;16.11;62.40;102169.66;5034561;28;20037;-68
2022/07/15 01:46:20;;;;;;;10.55;3.30;;;;;;;16.03;62.19;102166.91;5034341;28;20131;-68
2022/07/15 01:51:30;;;;;;;7.20;2.88;;;;;;;16.05;62.50;102172.25;5034575;28;20134;-68
2022/07/15 01:53:56;;;;;;;9.68;3.10;;;;;;;15.87;63.52;102170.31;5034405;28;20048;-68
2022/07/15 01:56:21;;;;;;;14.45;3.42;;;;;;;16.05;62.83;102167.81;5034439;28;20464;-68
2022/07/15 01:58:46;;;;;;;10.68;3.20;;;;;;;16.11;62.63;102173.22;5049494;28;20079;-68
2022/07/15 02:01:12;;;;;;;9.40;3.17;;;;;;;16.16;62.43;102178.59;5034403;28;20040;-68
2022/07/15 02:03:37;;;;;;;10.10;3.10;;;;;;;16.14;62.09;102172.34;5034025;28;20438;-68
2022/07/15 02:06:03;;;;;;;7.40;3.00;;;;;;;16.11;62.36;102173.22;5034188;28;20025;-68
2022/07/15 02:08:28;;;;;;;11.10;3.20;;;;;;;16.03;62.70;102172.25;5034266;28;20398;-68
2022/07/15 02:10:54;;;;;;;8.77;3.00;;;;;;;15.96;62.87;102171.28;5032764;28;20025;-69
2022/07/15 02:13:19;;;;;;;10.02;3.30;;;;;;;15.90;63.49;102173.00;5032447;28;20491;-68
2022/07/15 02:15:44;;;;;;;7.60;2.80;;;;;;;15.96;63.00;102178.41;5034172;28;20033;-68
2022/07/15 02:18:10;;;;;;;8.77;3.03;;;;;;;15.86;63.27;102173.88;5033541;28;20479;-68
2022/07/15 02:20:36;;;;;;;9.38;3.00;;;;;;;15.90;63.21;102175.69;5033319;28;20524;-68
2022/07/15 02:23:02;;;;;;;8.75;2.83;;;;;;;15.86;62.75;102173.88;5032372;28;20017;-68
2022/07/15 02:25:29;;;;;;;14.45;3.00;;;;;;;15.77;62.85;102172.00;5033927;28;20034;-68
2022/07/15 02:27:57;;;;;;;10.05;3.17;;;;;;;15.64;63.30;102164.72;5033668;28;20033;-68
2022/07/15 02:30:28;;;;;;;13.25;3.50;;;;;;;15.55;63.28;102168.16;5032217;28;20021;-68
2022/07/15 02:32:53;;;;;;;8.65;3.10;;;;;;;15.45;63.43;102161.81;5033615;28;20099;-68
2022/07/15 02:35:19;;;;;;;8.10;2.97;;;;;;;15.44;63.81;102168.03;5033842;28;20455;-68
2022/07/15 02:37:45;;;;;;;8.00;2.97;;;;;;;15.36;64.01;102163.47;5032216;28;20022;-68
2022/07/15 02:40:11;;;;;;;8.20;3.00;;;;;;;15.44;63.45;102169.81;5033329;28;20034;-68
2022/07/15 02:42:37;;;;;;;9.98;3.28;;;;;;;15.46;63.37;102170.69;5033738;28;20029;-68
2022/07/15 02:45:02;;;;;;;8.38;2.95;;;;;;;15.43;63.18;102168.91;5033350;28;20032;-68
2022/07/15 02:47:28;;;;;;;8.57;3.13;;;;;;;15.43;63.19;102162.69;5033214;28;20026;-68
2022/07/15 02:49:53;;;;;;;11.52;3.03;;;;;;;15.49;63.39;102168.97;5048947;28;20021;-68
2022/07/15 02:52:19;;;;;;;8.07;2.92;;;;;;;15.48;63.77;102163.63;5033174;28;20545;-69
2022/07/15 02:54:44;;;;;;;8.80;3.38;;;;;;;15.43;63.57;102165.34;5033408;28;20025;-68
2022/07/15 02:57:09;;;;;;;8.57;2.95;;;;;;;15.45;63.42;102168.91;5033226;28;20118;-68
2022/07/15 02:59:35;;;;;;;8.50;3.05;;;;;;;15.34;63.96;102178.56;5033392;28;20116;-68
2022/07/15 03:02:01;;;;;;;8.23;3.50;;;;;;;15.30;64.14;102174.97;5048525;28;20486;-68
2022/07/15 03:04:26;;;;;;;11.15;3.17;;;;;;;15.15;64.57;102180.97;5033022;28;20025;-68
2022/07/15 03:06:52;;;;;;;15.88;3.30;;;;;;;15.03;64.74;102192.38;5033177;28;20028;-68
2022/07/15 03:09:17;;;;;;;10.68;3.38;;;;;;;14.94;65.20;102197.53;5033191;28;20042;-68
2022/07/15 03:11:42;;;;;;;7.13;3.15;;;;;;;14.87;65.35;102208.09;5033405;28;20025;-68
2022/07/15 03:14:09;;;;;;;7.65;3.15;;;;;;;14.78;65.73;102196.44;5032079;28;20033;-68
2022/07/15 03:16:34;;;;;;;9.80;3.22;;;;;;;14.70;65.78;102205.19;5033051;28;20033;-68
2022/07/15 03:19:00;;;;;;;8.82;3.17;;;;;;;14.67;66.06;102205.13;5032723;28;20076;-68
2022/07/15 03:21:25;;;;;;;11.00;3.30;;;;;;;14.65;66.30;102212.19;5032906;28;20048;-68
2022/07/15 03:23:50;;;;;;;11.65;3.10;;;;;;;14.65;66.08;102209.53;5032964;28;20076;-68
2022/07/15 03:26:16;;;;;;;7.68;3.25;;;;;;;14.53;66.73;102216.44;5032986;28;20068;-68
2022/07/15 03:28:41;;;;;;;12.50;3.53;;;;;;;14.46;66.79;102218.94;5032825;28;20543;-68
2022/07/15 03:31:07;;;;;;;7.60;3.25;;;;;;;14.42;66.96;102220.63;5033286;28;20068;-68
2022/07/15 03:33:33;;;;;;;10.15;3.35;;;;;;;14.40;66.81;102218.84;5036864;28;20506;-68
2022/07/15 03:35:58;;;;;;;7.15;3.00;;;;;;;14.53;66.14;102224.41;5036818;28;20087;-68
2022/07/15 03:38:23;;;;;;;5.63;3.00;;;;;;;14.59;65.37;102228.03;5035539;28;20050;-68
2022/07/15 03:40:49;;;;;;;8.80;3.30;;;;;;;14.51;65.49;102228.81;5036603;28;20467;-68
2022/07/15 03:43:15;;;;;;;6.30;3.20;;;;;;;14.45;65.83;102225.13;5036684;28;20033;-68
2022/07/15 03:45:40;;;;;;;8.45;3.40;;;;;;;14.40;66.40;102225.06;5035498;28;20025;-69
2022/07/15 03:48:06;;;;;;;9.82;3.38;;;;;;;14.27;66.93;102231.03;5035427;28;20033;-68
2022/07/15 03:50:32;;;;;;;8.15;3.30;;;;;;;14.19;67.12;102227.34;5036718;28;20021;-69
2022/07/15 03:52:57;;;;;;;9.88;3.50;;;;;;;14.19;67.16;102230.88;5036878;28;20471;-69
2022/07/15 03:55:22;;;;;;;8.38;3.40;;;;;;;14.24;67.47;102239.84;5035186;28;20040;-69
2022/07/15 03:57:48;;;;;;;7.40;3.33;;;;;;;14.22;67.65;102235.38;5035211;28;20029;-69
2022/07/15 04:00:14;;;;;;;8.48;3.38;;;;;;;14.27;68.12;102244.31;5036312;28;20033;-68
2022/07/15 04:02:39;;;;;;;9.65;3.65;;;;;;;14.36;68.04;102235.63;5036182;28;20033;-68
2022/07/15 04:05:06;;;;;;;11.20;4.10;;;;;;;14.42;67.95;102246.34;5036357;28;20034;-69
2022/07/15 04:07:31;;;;;;;9.77;4.13;;;;;;;14.44;68.05;102241.97;5036159;28;20026;-69
2022/07/15 04:09:56;;;;;;;11.48;3.83;;;;;;;14.51;67.87;102243.88;5052027;28;20087;-69
2022/07/15 04:12:22;;;;;;;11.43;3.90;;;;;;;14.53;68.33;102243.03;5036019;28;20394;-69
2022/07/15 04:14:47;;;;;;;14.18;4.35;;;;;;;14.65;67.79;102246.78;5036247;28;20033;-69
2022/07/15 04:17:13;;;;;;;9.10;3.70;;;;;;;14.69;68.12;102243.31;5036323;28;20493;-69
2022/07/15 04:19:39;;;;;;;9.27;3.83;;;;;;;14.75;67.93;102244.28;5035791;28;20550;-69
2022/07/15 04:22:05;;;;;;;13.98;3.78;;;;;;;14.81;68.02;102240.81;5035853;28;20120;-70
2022/07/15 04:24:30;;;;;;;11.93;4.05;;;;;;;14.81;68.26;102239.91;5034614;28;20026;-69
2022/07/15 04:26:56;;;;;;;9.20;4.07;;;;;;;14.81;68.45;102246.13;5035850;28;20536;-69
2022/07/15 04:29:21;;;;;;;12.68;4.22;;;;;;;14.91;68.36;102237.44;5035741;28;20505;-69
2022/07/15 04:31:47;;;;;;;15.75;3.88;;;;;;;15.05;68.34;102240.31;5035938;28;20529;-69
2022/07/15 04:34:12;;;;;;;14.35;3.72;;;;;;;15.18;68.09;102249.38;5035757;28;20036;-69
2022/07/15 04:36:39;;;;;;;9.70;4.13;;;;;;;15.28;67.96;102246.84;5035853;28;20025;-69
2022/07/15 04:39:04;;;;;;;9.68;3.70;;;;;;;15.36;67.73;102248.72;5035739;28;20030;-69
2022/07/15 04:41:30;;;;;;;9.30;4.05;;;;;;;15.42;67.59;102246.16;5035646;28;20486;-69
2022/07/15 04:43:55;;;;;;;10.40;4.05;;;;;;;15.47;67.55;102258.66;5035427;28;20030;-69
2022/07/15 04:46:21;;;;;;;14.82;4.53;;;;;;;15.54;67.37;102259.59;5034231;28;20026;-69
2022/07/15 04:51:30;;;;;;;11.15;4.65;;;;;;;15.74;66.66;102257.25;5035844;28;20052;-69
2022/07/15 04:53:55;;;;;;;14.30;4.72;;;;;;;15.77;67.22;102252.84;5035491;28;20022;-69
2022/07/15 04:56:21;;;;;;;11.27;4.70;;;;;;;15.87;67.00;102260.94;5034282;28;20026;-69
2022/07/15 04:58:46;;;;;;;12.70;4.78;;;;;;;15.92;66.82;102256.56;5035355;28;20113;-69
2022/07/15 05:01:12;;;;;;;9.93;4.68;;;;;;;15.97;66.70;102255.75;5035219;28;20079;-69
2022/07/15 05:03:37;;;;;;;12.95;4.78;;;;;;;16.03;66.84;102253.13;5034087;28;20029;-69
2022/07/15 05:06:03;;;;;;;8.98;4.50;;;;;;;16.08;66.49;102254.97;5035215;28;20030;-69
2022/07/15 05:08:29;;;;;;;11.50;4.40;;;;;;;16.09;66.85;102254.97;5035127;28;20053;-69
2022/07/15 05:10:55;;;;;;;11.55;4.53;;;;;;;16.06;66.93;102248.69;5035245;28;20032;-69
2022/07/15 05:13:20;;;;;;;12.73;4.53;;;;;;;16.13;66.66;102255.91;5034939;28;20030;-69
2022/07/15 05:15:46;;;;;;;11.18;4.22;;;;;;;16.21;66.80;102256.88;5034997;28;20103;-69
2022/07/15 05:18:11;;;;;;;10.70;4.82;;;;;;;16.29;66.79;102257.84;5034682;28;20029;-69
2022/07/15 05:20:37;;;;;;;15.27;4.90;;;;;;;16.34;66.68;102258.78;5035559;28;20041;-69
2022/07/15 05:23:03;;;;;;;10.73;4.43;;;;;;;16.48;66.55;102262.44;5035022;28;20022;-69
2022/07/15 05:25:29;;;;;;;12.45;4.55;;;;;;;16.55;66.17;102263.41;5033614;28;20403;-69
2022/07/15 05:27:54;;;;;;;8.45;4.30;;;;;;;16.71;65.70;102259.13;5034768;28;20060;-69
2022/07/15 05:30:20;;;;;;;12.02;4.55;;;;;;;16.85;65.47;102276.16;5035001;28;20028;-69
2022/07/15 05:32:46;;;;;;;9.95;4.28;;;;;;;16.92;65.34;102267.31;5034842;28;20026;-69
2022/07/15 05:35:17;;;;;;;10.77;4.10;;;;;;;17.01;64.89;102267.38;5034599;28;20038;-69
2022/07/15 05:37:43;;;;;;;16.50;4.22;;;;;;;17.13;64.58;102257.63;5034952;28;20080;-69
2022/07/15 05:40:09;;;;;;;9.63;3.75;;;;;;;17.34;64.21;102255.09;5034630;28;20442;-69
2022/07/15 05:42:35;;;;;;;11.13;4.00;;;;;;;17.52;63.20;102255.22;5034460;28;20025;-69
2022/07/15 05:45:01;;;;;;;10.15;3.50;;;;;;;17.66;62.61;102255.25;5034401;28;20124;-69
2022/07/15 05:47:27;;;;;;;9.35;3.28;;;;;;;17.79;62.03;102253.56;5034444;28;20032;-69
2022/07/15 05:49:52;;;;;;;10.27;3.58;;;;;;;17.96;61.21;102253.63;5033219;28;20479;-70
2022/07/15 05:52:17;;;;;;;8.80;3.50;;;;;;;18.09;62.21;102262.56;5034455;28;20063;-70
2022/07/15 05:54:43;;;;;;;14.05;3.47;;;;;;;18.21;61.21;102249.22;5032248;28;20025;-70
2022/07/15 05:57:08;;;;;;;11.00;3.30;;;;;;;18.38;60.45;102246.56;5034217;28;20438;-70
2022/07/15 05:59:34;;;;;;;6.22;3.17;;;;;;;18.59;59.43;102243.91;5033168;28;20104;-70
2022/07/15 06:01:59;;;;;;;14.85;3.58;;;;;;;18.68;59.06;102253.72;5034098;28;20463;-70
2022/07/15 06:04:26;;;;;;;13.63;3.30;;;;;;;18.80;58.76;102251.06;5034509;28;20025;-69
2022/07/15 06:06:53;;;;;;;9.38;3.00;;;;;;;18.89;58.29;102256.41;5034231;28;20091;-70
2022/07/15 06:09:19;;;;;;;7.93;3.20;;;;;;;19.09;57.68;102250.09;5033984;28;20471;-70
2022/07/15 06:11:44;;;;;;;8.23;3.00;;;;;;;19.20;57.25;102253.66;5033918;28;20067;-70
2022/07/15 06:14:10;;;;;;;9.40;2.83;;;;;;;19.42;57.06;102251.81;5032530;28;20439;-70
2022/07/15 06:16:35;;;;;;;9.60;2.95;;;;;;;19.59;55.49;102244.59;5032492;28;20452;-70
2022/07/15 06:19:00;;;;;;;11.00;2.80;;;;;;;19.77;54.53;102246.34;5049097;28;20042;-70
2022/07/15 06:21:26;;;;;;;8.85;2.80;;;;;;;19.88;53.46;102246.28;5032454;28;20398;-70
2022/07/15 06:23:51;;;;;;;10.23;2.55;;;;;;;20.08;53.46;102240.78;5033977;28;20095;-70
2022/07/15 06:26:17;;;;;;;12.90;2.60;;;;;;;20.23;51.35;102254.13;5033705;28;20475;-70
2022/07/15 06:28:42;;;;;;;12.77;2.00;;;;;;;20.25;50.94;102246.94;5033809;28;20152;-70
2022/07/15 06:31:08;;;;;;;9.73;2.40;;;;;;;20.47;50.68;102250.34;5032320;28;20090;-70
2022/07/15 06:33:33;;;;;;;7.50;1.90;;;;;;;20.57;50.08;102251.22;5033663;28;20029;-70
2022/07/15 06:35:59;;;;;;;10.15;2.10;;;;;;;20.65;50.09;102241.31;5033529;28;20026;-70
2022/07/15 06:38:24;;;;;;;7.38;2.10;;;;;;;20.76;49.37;102242.06;5033635;28;20033;-70
2022/07/15 06:40:50;;;;;;;8.63;2.00;;;;;;;20.94;47.65;102243.69;5033502;28;20459;-69
2022/07/15 06:43:15;;;;;;;5.90;1.80;;;;;;;21.04;48.08;102247.22;5033480;28;20349;-70
2022/07/15 06:45:41;;;;;;;7.55;1.90;;;;;;;21.17;46.81;102246.16;5033355;28;20475;-70
2022/07/15 06:48:06;;;;;;;6.45;1.90;;;;;;;21.30;46.82;102238.84;5031997;28;20033;-70
2022/07/15 06:50:32;;;;;;;6.75;2.10;;;;;;;21.42;46.66;102245.00;5033235;28;20025;-70
2022/07/15 06:52:57;;;;;;;9.85;2.75;;;;;;;21.59;45.30;102246.59;5033471;28;20021;-70
2022/07/15 06:55:22;;;;;;;6.53;1.88;;;;;;;21.65;45.15;102242.03;5033260;28;20494;-70
2022/07/15 06:57:48;;;;;;;8.23;2.13;;;;;;;21.89;45.53;102248.88;5033345;28;20494;-70
2022/07/15 07:00:15;;;;;;;7.47;1.90;;;;;;;21.96;45.41;102247.88;5033106;28;20041;-70
2022/07/15 07:02:41;;;;;;;8.85;2.30;;;;;;;22.07;44.95;102241.47;5032961;28;20037;-70
2022/07/15 07:05:08;;;;;;;8.00;2.00;;;;;;;22.17;44.23;102249.41;5032981;28;20029;-71
2022/07/15 07:07:34;;;;;;;6.60;2.10;;;;;;;22.17;44.60;102241.31;5033102;28;20495;-70
2022/07/15 07:09:59;;;;;;;7.80;2.20;;;;;;;22.27;44.37;102238.47;5033119;28;20064;-70
2022/07/15 07:12:25;;;;;;;6.80;2.10;;;;;;;22.42;43.84;102254.41;5033410;28;20041;-70
2022/07/15 07:14:50;;;;;;;7.65;1.88;;;;;;;22.50;42.52;102247.09;5033194;28;20017;-70
2022/07/15 07:17:15;;;;;;;6.75;1.90;;;;;;;22.63;42.10;102251.38;5033143;28;20475;-67
2022/07/15 07:19:41;;;;;;;10.20;2.50;;;;;;;22.82;42.67;102253.72;5033099;28;20054;-68
2022/07/15 07:22:06;;;;;;;8.07;2.35;;;;;;;22.99;42.53;102252.53;5033119;28;20547;-68
2022/07/15 07:24:32;;;;;;;6.03;2.20;;;;;;;22.92;42.50;102261.66;5033010;28;20025;-68
2022/07/15 07:26:57;;;;;;;9.05;2.13;;;;;;;22.97;43.22;102258.88;5033090;28;20487;-68
2022/07/15 07:29:23;;;;;;;6.47;1.80;;;;;;;23.20;42.51;102261.16;5032967;28;20022;-69
2022/07/15 07:31:49;;;;;;;9.52;2.20;;;;;;;23.32;41.96;102263.59;5032686;28;20057;-68
2022/07/15 07:34:15;;;;;;;5.20;2.22;;;;;;;23.39;41.89;102262.56;5032811;28;20029;-69
2022/07/15 07:36:41;;;;;;;9.25;2.55;;;;;;;23.42;41.27;102261.59;5032655;28;20018;-69
2022/07/15 07:39:06;;;;;;;5.25;2.03;;;;;;;23.49;42.35;102263.28;5033295;28;20537;-69
2022/07/15 07:41:32;;;;;;;8.90;2.00;;;;;;;23.57;41.25;102268.53;5032708;28;20069;-70
2022/07/15 07:43:58;;;;;;;6.85;2.33;;;;;;;23.56;40.86;102272.16;5031716;28;20048;-70
2022/07/15 07:46:23;;;;;;;10.13;2.15;;;;;;;23.61;41.17;102267.53;5032982;28;20071;-70
2022/07/15 07:48:48;;;;;;;5.20;1.83;;;;;;;23.54;40.82;102282.06;5032730;28;20033;-70
2022/07/15 07:51:14;;;;;;;8.35;1.98;;;;;;;23.69;41.53;102271.88;5032744;28;20025;-69
2022/07/15 07:53:40;;;;;;;9.68;2.00;;;;;;;23.87;41.30;102265.19;5032570;28;20382;-69
2022/07/15 07:56:06;;;;;;;6.32;2.03;;;;;;;23.56;40.15;102277.53;5031447;28;20041;-70
2022/07/15 07:58:31;;;;;;;7.00;2.17;;;;;;;23.13;40.64;102276.56;5031287;28;20037;-69
2022/07/15 08:00:56;;;;;;;8.40;1.98;;;;;;;23.43;41.00;102271.50;5032569;28;20471;-70
2022/07/15 08:03:22;;;;;;;8.35;2.00;;;;;;;23.75;39.54;102278.94;5032387;28;20030;-69
2022/07/15 08:05:47;;;;;;;6.47;1.80;;;;;;;24.08;37.88;102263.81;5032538;28;20049;-71
2022/07/15 08:08:15;;;;;;;5.50;2.00;;;;;;;24.31;39.15;102268.69;5032618;28;20115;-70
2022/07/15 08:10:43;;;;;;;6.22;2.22;;;;;;;24.33;37.94;102266.84;5032517;28;20053;-70
2022/07/15 08:13:08;;;;;;;4.82;2.10;;;;;;;24.27;38.25;102258.88;5032458;28;20541;-70
2022/07/15 08:15:36;;;;;;;6.55;2.00;;;;;;;24.43;37.87;102264.84;5032453;28;20022;-70
2022/07/15 08:18:01;;;;;;;5.95;2.00;;;;;;;24.79;37.61;102262.13;5034255;28;20418;-70
2022/07/15 08:20:28;;;;;;;7.38;1.92;;;;;;;24.98;36.01;102266.13;5035742;28;20049;-70
2022/07/15 08:22:58;;;;;;;7.25;2.13;;;;;;;24.97;35.87;102270.66;5036236;28;20037;-70
2022/07/15 08:25:27;;;;;;;6.75;1.92;;;;;;;25.00;35.54;102275.06;5035974;28;20036;-70
2022/07/15 08:27:53;;;;;;;4.93;1.80;;;;;;;25.16;35.39;102278.28;5036027;28;20112;-70
2022/07/15 08:30:18;;;;;;;7.03;2.42;;;;;;;25.01;36.03;102274.16;5035757;28;20510;-71
2022/07/15 08:32:44;;;;;;;6.60;2.10;;;;;;;25.14;35.10;102274.75;5035815;28;20112;-71
2022/07/15 08:35:09;;;;;;;5.70;2.03;;;;;;;25.23;35.82;102274.50;5036010;28;20044;-70
2022/07/15 08:37:35;;;;;;;11.63;2.00;;;;;;;25.48;35.75;102277.38;5035861;28;20021;-70
2022/07/15 08:40:00;;;;;;;7.93;1.92;;;;;;;25.86;32.96;102269.97;5035706;28;20034;-70
2022/07/15 08:42:25;;;;;;;6.25;1.70;;;;;;;25.98;33.64;102275.91;5035552;28;20033;-70
2022/07/15 08:44:53;;;;;;;6.90;1.83;;;;;;;25.91;33.70;102266.22;5035696;28;20029;-70
2022/07/15 08:47:19;;;;;;;4.70;1.80;;;;;;;26.08;32.50;102256.66;5035725;28;20025;-70
2022/07/15 08:49:47;;;;;;;5.60;2.00;;;;;;;26.37;32.39;102270.16;5035548;28;20472;-70
2022/07/15 08:52:15;;;;;;;6.20;2.00;;;;;;;26.54;33.09;102266.03;5035471;28;20379;-70
2022/07/15 08:54:41;;;;;;;9.07;1.92;;;;;;;26.68;32.34;102261.03;5035416;28;20013;-70
2022/07/15 08:57:06;;;;;;;5.88;1.75;;;;;;;26.37;32.60;102262.03;5035578;28;20074;-70
2022/07/15 08:59:32;;;;;;;5.68;1.80;;;;;;;26.11;32.68;102257.44;5035525;28;20030;-69
2022/07/15 09:01:59;;;;;;;6.43;2.25;;;;;;;25.58;33.82;102257.25;5035606;28;20079;-70
2022/07/15 09:04:24;;;;;;;5.95;1.90;;;;;;;25.36;33.40;102258.81;5035444;28;20065;-71
2022/07/15 09:06:50;;;;;;;6.35;1.83;;;;;;;25.47;33.58;102265.66;5034098;28;20041;-70
2022/07/15 09:09:27;;;;;;;7.15;2.05;;;;;;;25.81;33.73;102253.00;5035193;28;20048;-70
2022/07/15 09:12:07;;;;;;;4.60;1.50;;;;;;;26.20;33.07;102254.44;5033993;28;20399;-70
2022/07/15 09:14:35;;;;;;;4.63;1.92;;;;;;;26.44;31.75;102254.63;5035452;28;20071;-70
2022/07/15 09:17:18;;;;;;;7.40;1.85;;;;;;;26.82;30.81;102250.63;5034624;28;20033;-70
2022/07/15 09:20:02;;;;;;;6.40;1.85;;;;;;;27.19;31.50;102258.38;5034634;28;20045;-70
2022/07/15 09:22:30;;;;;;;4.43;1.70;;;;;;;27.33;30.45;102252.44;5033508;28;20493;-70
2022/07/15 09:25:04;;;;;;;5.35;1.90;;;;;;;27.41;30.76;102252.16;5035105;28;20025;-70
2022/07/15 09:27:33;;;;;;;6.65;1.90;;;;;;;27.65;30.17;102251.19;5017052;28;20036;-70
2022/07/15 09:36:06;;;;;;;7.70;1.85;;;;;;;27.39;29.90;102251.31;5034764;28;20099;-70
2022/07/15 09:38:43;;;;;;;7.10;1.83;;;;;;;27.56;30.73;102251.56;5034992;28;20029;-70
2022/07/15 09:41:11;;;;;;;7.35;1.98;;;;;;;27.38;30.33;102254.97;5034465;28;20033;-70
2022/07/15 09:43:52;;;;;;;4.80;1.75;;;;;;;27.81;29.84;102250.66;5033441;28;20490;-70
2022/07/15 09:46:20;;;;;;;4.20;1.67;;;;;;;28.10;28.05;102252.22;5034928;28;20026;-70
2022/07/15 09:48:48;;;;;;;5.28;1.77;;;;;;;28.14;27.70;102249.31;5034338;28;20021;-70
2022/07/15 09:51:14;;;;;;;5.05;1.80;;;;;;;28.25;26.60;102257.00;5034588;28;20030;-70
2022/07/15 09:53:40;;;;;;;4.45;1.70;;;;;;;28.00;27.87;102251.69;5034939;28;20100;-70
2022/07/15 09:56:12;;;;;;;4.22;1.70;;;;;;;28.08;27.26;102245.94;5034401;28;20055;-70
2022/07/15 09:58:40;;;;;;;4.25;1.52;;;;;;;28.41;28.13;102249.16;5034538;28;20017;-70
2022/07/15 10:01:09;;;;;;;5.28;1.73;;;;;;;28.10;28.10;102235.91;5034235;28;20079;-70
2022/07/15 10:03:36;;;;;;;5.55;1.70;;;;;;;28.28;27.06;102235.16;5034279;28;20021;-70
2022/07/15 10:06:02;;;;;;;5.07;1.73;;;;;;;28.60;26.85;102236.53;5034472;28;20118;-70
2022/07/15 10:08:31;;;;;;;4.70;1.60;;;;;;;28.88;26.61;102235.34;5034429;28;20021;-70
2022/07/15 10:10:57;;;;;;;5.90;1.90;;;;;;;28.79;26.81;102224.88;5034339;28;20487;-70
2022/07/15 10:13:41;;;;;;;5.57;1.70;;;;;;;29.20;26.66;102228.47;5034264;28;20017;-70
2022/07/15 10:16:31;;;;;;;6.15;1.80;;;;;;;29.27;27.03;102232.69;5034058;28;20033;-70
2022/07/15 10:19:06;;;;;;;5.70;1.77;;;;;;;28.60;27.35;102228.38;5033456;28;20053;-70
2022/07/15 10:21:37;;;;;;;5.25;1.80;;;;;;;28.63;27.67;102224.66;5033871;28;20041;-70
2022/07/15 10:24:18;;;;;;;5.03;1.80;;;;;;;28.56;27.19;102223.13;5033784;28;20485;-70
2022/07/15 10:27:02;;;;;;;5.95;1.80;;;;;;;28.48;27.44;102223.47;5033745;28;20034;-70
2022/07/15 10:29:29;;;;;;;3.47;1.77;;;;;;;28.49;26.79;102216.19;5033644;28;20492;-70
2022/07/15 10:31:58;;;;;;;6.38;1.92;;;;;;;28.59;26.21;102213.00;5033674;28;20033;-70
2022/07/15 10:34:23;;;;;;;5.90;1.60;;;;;;;29.02;26.86;102210.25;5032494;28;20468;-70
2022/07/15 10:36:53;;;;;;;4.80;1.80;;;;;;;29.13;26.53;102216.13;5033366;28;20044;-70
2022/07/15 10:39:24;;;;;;;9.00;1.95;;;;;;;29.36;25.34;102213.22;5033616;28;20033;-70
2022/07/15 10:41:53;;;;;;;4.05;1.50;;;;;;;29.42;26.31;102212.94;5033483;28;20068;-70
2022/07/15 10:44:20;;;;;;;5.25;1.77;;;;;;;29.87;24.79;102206.28;5033437;28;20391;-70
2022/07/15 10:46:47;;;;;;;4.45;1.70;;;;;;;30.06;25.45;102199.91;5033350;28;20022;-70
2022/07/15 10:49:12;;;;;;;5.70;1.55;;;;;;;29.99;24.57;102206.66;5033316;28;20033;-70
2022/07/15 10:51:37;;;;;;;4.72;1.70;;;;;;;29.78;26.05;102211.28;5033508;28;20026;-70
2022/07/15 10:54:09;;;;;;;4.22;1.60;;;;;;;29.15;26.28;102195.13;5033498;28;20025;-70
2022/07/15 10:56:37;;;;;;;9.73;1.73;;;;;;;29.05;26.88;102191.97;5048730;28;20018;-70
2022/07/15 10:59:14;;;;;;;5.15;1.45;;;;;;;28.60;27.86;102195.72;5033132;28;20506;-70
2022/07/15 11:01:43;;;;;;;5.82;1.85;;;;;;;28.99;26.22;102183.19;5033589;28;20033;-70
2022/07/15 11:04:08;;;;;;;4.38;1.67;;;;;;;29.31;26.29;102174.41;5033185;28;20114;-70
2022/07/15 11:07:12;;;;;;;5.00;1.98;;;;;;;29.51;26.42;102176.22;5033122;28;20495;-70
2022/07/15 11:09:54;;;;;;;5.95;1.60;;;;;;;29.71;25.88;102179.84;5033061;28;20025;-70
2022/07/15 11:12:22;;;;;;;5.30;1.60;;;;;;;29.89;25.58;102177.13;5032889;28;20513;-70
2022/07/15 11:15:01;;;;;;;4.65;1.70;;;;;;;30.23;25.84;102188.19;5033153;28;20033;-70
2022/07/15 11:17:29;;;;;;;5.15;1.70;;;;;;;30.37;24.60;102192.00;5033243;28;20030;-71
2022/07/15 11:20:08;;;;;;;4.55;1.70;;;;;;;30.07;25.22;102188.94;5032866;28;20164;-70
2022/07/15 11:22:35;;;;;;;4.80;1.65;;;;;;;29.36;25.56;102182.38;5033214;28;20080;-70
2022/07/15 11:25:01;;;;;;;4.60;1.80;;;;;;;28.93;26.79;102176.16;5032844;28;20486;-70
2022/07/15 11:27:26;;;;;;;3.92;1.80;;;;;;;28.77;26.71;102173.22;5033770;28;20079;-70
2022/07/15 11:30:02;;;;;;;3.70;1.52;;;;;;;29.11;26.74;102172.63;5033010;28;20037;-70
2022/07/15 11:32:29;;;;;;;4.35;1.70;;;;;;;29.10;26.94;102164.53;5032828;28;20088;-68
2022/07/15 11:34:56;;;;;;;4.28;1.60;;;;;;;28.87;27.11;102169.16;5033017;28;20033;-69